sensor_id;sensor_type;location;lat;lon;timestamp;temperature;humidity
15625;DHT22;7912;51.376;6.126;2023-08-30T00:02:14;17.00;99.90
15625;DHT22;7912;51.376;6.126;2023-08-30T00:04:44;17.00;99.90
15625;DHT22;7912;51.376;6.126;2023-08-30T00:07:12;17.00;99.90
15625;DHT22;7912;51.376;6.126;2023-08-30T00:09:39;17.00;99.90
15625;DHT22;7912;51.376;6.126;2023-08-30T00:12:09;17.10;99.90
15625;DHT22;7912;51.376;6.126;2023-08-30T00:14:36;17.10;99.90
15625;DHT22;7912;51.376;6.126;2023-08-30T00:17:04;17.10;99.90
15625;DHT22;7912;51.376;6.126;2023-08-30T00:19:33;17.20;99.90
15625;DHT22;7912;51.376;6.126;2023-08-30T00:22:01;17.20;99.90
15625;DHT22;7912;51.376;6.126;2023-08-30T00:24:29;17.20;99.90
15625;DHT22;7912;51.376;6.126;2023-08-30T00:26:57;17.30;99.90
15625;DHT22;7912;51.376;6.126;2023-08-30T00:29:25;17.30;99.90
15625;DHT22;7912;51.376;6.126;2023-08-30T00:31:52;17.30;99.90
15625;DHT22;7912;51.376;6.126;2023-08-30T00:34:20;17.30;99.90
15625;DHT22;7912;51.376;6.126;2023-08-30T00:36:47;17.40;99.90
15625;DHT22;7912;51.376;6.126;2023-08-30T00:39:15;17.40;99.90
15625;DHT22;7912;51.376;6.126;2023-08-30T00:41:43;17.40;99.90
15625;DHT22;7912;51.376;6.126;2023-08-30T00:44:10;17.40;99.90
15625;DHT22;7912;51.376;6.126;2023-08-30T00:46:38;17.40;99.90
15625;DHT22;7912;51.376;6.126;2023-08-30T00:49:05;17.50;99.90
15625;DHT22;7912;51.376;6.126;2023-08-30T00:51:33;17.50;99.90
15625;DHT22;7912;51.376;6.126;2023-08-30T00:54:01;17.50;99.90
15625;DHT22;7912;51.376;6.126;2023-08-30T00:59:35;17.50;99.90
15625;DHT22;7912;51.376;6.126;2023-08-30T01:02:04;17.60;99.90
15625;DHT22;7912;51.376;6.126;2023-08-30T01:04:34;17.60;99.90
15625;DHT22;7912;51.376;6.126;2023-08-30T01:07:02;17.60;99.90
15625;DHT22;7912;51.376;6.126;2023-08-30T01:09:30;17.60;99.90
15625;DHT22;7912;51.376;6.126;2023-08-30T01:12:05;17.60;99.90
15625;DHT22;7912;51.376;6.126;2023-08-30T01:14:45;17.70;99.90
15625;DHT22;7912;51.376;6.126;2023-08-30T01:17:24;17.70;99.90
15625;DHT22;7912;51.376;6.126;2023-08-30T01:20:00;17.80;99.90
15625;DHT22;7912;51.376;6.126;2023-08-30T01:25:59;17.80;99.90
15625;DHT22;7912;51.376;6.126;2023-08-30T01:28:40;17.80;99.90
15625;DHT22;7912;51.376;6.126;2023-08-30T01:31:11;17.90;99.90
15625;DHT22;7912;51.376;6.126;2023-08-30T01:33:41;17.90;99.90
15625;DHT22;7912;51.376;6.126;2023-08-30T01:36:10;17.90;99.90
15625;DHT22;7912;51.376;6.126;2023-08-30T01:38:43;17.90;99.90
15625;DHT22;7912;51.376;6.126;2023-08-30T01:41:13;18.00;99.90
15625;DHT22;7912;51.376;6.126;2023-08-30T01:43:43;18.00;99.90
15625;DHT22;7912;51.376;6.126;2023-08-30T01:46:11;18.00;99.90
15625;DHT22;7912;51.376;6.126;2023-08-30T01:48:41;18.00;99.90
15625;DHT22;7912;51.376;6.126;2023-08-30T01:51:09;18.10;99.90
15625;DHT22;7912;51.376;6.126;2023-08-30T01:53:37;18.10;99.90
15625;DHT22;7912;51.376;6.126;2023-08-30T01:56:09;18.10;99.90
15625;DHT22;7912;51.376;6.126;2023-08-30T01:58:36;18.10;99.90
15625;DHT22;7912;51.376;6.126;2023-08-30T02:01:03;18.10;99.90
15625;DHT22;7912;51.376;6.126;2023-08-30T02:03:31;18.10;99.90
15625;DHT22;7912;51.376;6.126;2023-08-30T02:06:09;18.20;99.90
15625;DHT22;7912;51.376;6.126;2023-08-30T02:09:09;18.20;99.90
15625;DHT22;7912;51.376;6.126;2023-08-30T02:11:44;18.20;99.90
15625;DHT22;7912;51.376;6.126;2023-08-30T02:14:15;18.20;99.90
15625;DHT22;7912;51.376;6.126;2023-08-30T02:16:46;18.20;99.90
15625;DHT22;7912;51.376;6.126;2023-08-30T02:19:19;18.20;99.90
15625;DHT22;7912;51.376;6.126;2023-08-30T02:21:51;18.20;99.90
15625;DHT22;7912;51.376;6.126;2023-08-30T02:24:30;18.20;99.90
15625;DHT22;7912;51.376;6.126;2023-08-30T02:27:06;18.20;99.90
15625;DHT22;7912;51.376;6.126;2023-08-30T02:29:43;18.20;99.90
15625;DHT22;7912;51.376;6.126;2023-08-30T02:32:19;18.20;99.90
15625;DHT22;7912;51.376;6.126;2023-08-30T02:34:52;18.20;99.90
15625;DHT22;7912;51.376;6.126;2023-08-30T02:37:38;18.10;99.90
15625;DHT22;7912;51.376;6.126;2023-08-30T02:40:09;18.20;99.90
15625;DHT22;7912;51.376;6.126;2023-08-30T02:42:39;18.10;99.90
15625;DHT22;7912;51.376;6.126;2023-08-30T02:45:08;18.10;99.90
15625;DHT22;7912;51.376;6.126;2023-08-30T02:47:37;18.10;99.90
15625;DHT22;7912;51.376;6.126;2023-08-30T02:50:08;18.10;99.90
15625;DHT22;7912;51.376;6.126;2023-08-30T02:52:55;18.10;99.90
15625;DHT22;7912;51.376;6.126;2023-08-30T02:55:31;18.10;99.90
15625;DHT22;7912;51.376;6.126;2023-08-30T02:58:09;18.10;99.90
15625;DHT22;7912;51.376;6.126;2023-08-30T03:00:49;18.10;99.90
15625;DHT22;7912;51.376;6.126;2023-08-30T03:03:39;18.10;99.90
15625;DHT22;7912;51.376;6.126;2023-08-30T03:06:19;18.10;99.90
15625;DHT22;7912;51.376;6.126;2023-08-30T03:08:50;18.10;99.90
15625;DHT22;7912;51.376;6.126;2023-08-30T03:11:21;18.10;99.90
15625;DHT22;7912;51.376;6.126;2023-08-30T03:13:54;18.10;99.90
15625;DHT22;7912;51.376;6.126;2023-08-30T03:16:29;18.10;99.90
15625;DHT22;7912;51.376;6.126;2023-08-30T03:19:03;18.10;99.90
15625;DHT22;7912;51.376;6.126;2023-08-30T03:21:50;18.10;99.90
15625;DHT22;7912;51.376;6.126;2023-08-30T03:24:34;18.10;99.90
15625;DHT22;7912;51.376;6.126;2023-08-30T03:27:06;18.10;99.90
15625;DHT22;7912;51.376;6.126;2023-08-30T03:29:39;18.10;99.90
15625;DHT22;7912;51.376;6.126;2023-08-30T03:32:15;18.10;99.90
15625;DHT22;7912;51.376;6.126;2023-08-30T03:34:50;18.10;99.90
15625;DHT22;7912;51.376;6.126;2023-08-30T03:37:22;18.10;99.90
15625;DHT22;7912;51.376;6.126;2023-08-30T03:39:58;18.10;99.90
15625;DHT22;7912;51.376;6.126;2023-08-30T03:42:28;18.10;99.90
15625;DHT22;7912;51.376;6.126;2023-08-30T03:44:56;18.10;99.90
15625;DHT22;7912;51.376;6.126;2023-08-30T03:47:32;18.10;99.90
15625;DHT22;7912;51.376;6.126;2023-08-30T03:50:06;18.10;99.90
15625;DHT22;7912;51.376;6.126;2023-08-30T03:52:41;18.10;99.90
15625;DHT22;7912;51.376;6.126;2023-08-30T03:55:14;18.00;99.90
15625;DHT22;7912;51.376;6.126;2023-08-30T03:57:45;18.00;99.90
15625;DHT22;7912;51.376;6.126;2023-08-30T04:00:27;18.00;99.90
15625;DHT22;7912;51.376;6.126;2023-08-30T04:02:58;18.00;99.90
15625;DHT22;7912;51.376;6.126;2023-08-30T04:05:33;18.00;99.90
15625;DHT22;7912;51.376;6.126;2023-08-30T04:08:06;18.00;99.90
15625;DHT22;7912;51.376;6.126;2023-08-30T04:10:39;18.00;99.90
15625;DHT22;7912;51.376;6.126;2023-08-30T04:13:10;18.00;99.90
15625;DHT22;7912;51.376;6.126;2023-08-30T04:15:54;18.00;99.90
15625;DHT22;7912;51.376;6.126;2023-08-30T04:18:27;18.00;99.90
15625;DHT22;7912;51.376;6.126;2023-08-30T04:20:58;18.00;99.90
15625;DHT22;7912;51.376;6.126;2023-08-30T04:23:32;18.00;99.90
15625;DHT22;7912;51.376;6.126;2023-08-30T04:26:06;18.00;99.90
15625;DHT22;7912;51.376;6.126;2023-08-30T04:28:34;18.00;99.90
15625;DHT22;7912;51.376;6.126;2023-08-30T04:31:05;18.00;99.90
15625;DHT22;7912;51.376;6.126;2023-08-30T04:33:41;18.00;99.90
15625;DHT22;7912;51.376;6.126;2023-08-30T04:36:09;18.00;99.90
15625;DHT22;7912;51.376;6.126;2023-08-30T04:38:39;18.00;99.90
15625;DHT22;7912;51.376;6.126;2023-08-30T04:41:22;18.00;99.90
15625;DHT22;7912;51.376;6.126;2023-08-30T04:44:01;18.00;99.90
15625;DHT22;7912;51.376;6.126;2023-08-30T04:46:33;18.00;99.90
15625;DHT22;7912;51.376;6.126;2023-08-30T04:49:08;18.00;99.90
15625;DHT22;7912;51.376;6.126;2023-08-30T04:51:36;18.00;99.90
15625;DHT22;7912;51.376;6.126;2023-08-30T04:54:04;18.00;99.90
15625;DHT22;7912;51.376;6.126;2023-08-30T04:56:32;17.90;99.90
15625;DHT22;7912;51.376;6.126;2023-08-30T04:59:00;17.90;99.90
15625;DHT22;7912;51.376;6.126;2023-08-30T05:01:31;17.90;99.90
15625;DHT22;7912;51.376;6.126;2023-08-30T05:03:59;17.90;99.90
15625;DHT22;7912;51.376;6.126;2023-08-30T05:13:16;17.90;99.90
15625;DHT22;7912;51.376;6.126;2023-08-30T05:15:46;17.80;99.90
15625;DHT22;7912;51.376;6.126;2023-08-30T05:18:14;17.80;99.90
15625;DHT22;7912;51.376;6.126;2023-08-30T05:20:49;17.80;99.90
15625;DHT22;7912;51.376;6.126;2023-08-30T05:23:20;17.80;99.90
15625;DHT22;7912;51.376;6.126;2023-08-30T05:25:53;17.80;99.90
15625;DHT22;7912;51.376;6.126;2023-08-30T05:28:26;17.80;99.90
15625;DHT22;7912;51.376;6.126;2023-08-30T05:30:54;17.70;99.90
15625;DHT22;7912;51.376;6.126;2023-08-30T05:33:22;17.80;99.90
15625;DHT22;7912;51.376;6.126;2023-08-30T05:35:50;17.80;99.90
15625;DHT22;7912;51.376;6.126;2023-08-30T05:38:20;17.80;99.90
15625;DHT22;7912;51.376;6.126;2023-08-30T05:40:48;17.80;99.90
15625;DHT22;7912;51.376;6.126;2023-08-30T05:43:19;17.80;99.90
15625;DHT22;7912;51.376;6.126;2023-08-30T05:45:56;17.90;99.90
15625;DHT22;7912;51.376;6.126;2023-08-30T05:48:55;17.90;99.90
15625;DHT22;7912;51.376;6.126;2023-08-30T05:51:41;17.90;99.90
15625;DHT22;7912;51.376;6.126;2023-08-30T05:54:24;18.00;99.90
15625;DHT22;7912;51.376;6.126;2023-08-30T05:57:01;18.00;99.90
15625;DHT22;7912;51.376;6.126;2023-08-30T05:59:32;18.10;99.90
15625;DHT22;7912;51.376;6.126;2023-08-30T06:02:19;18.10;99.90
15625;DHT22;7912;51.376;6.126;2023-08-30T06:04:59;18.20;99.90
15625;DHT22;7912;51.376;6.126;2023-08-30T06:07:29;18.30;99.90
15625;DHT22;7912;51.376;6.126;2023-08-30T06:10:06;18.30;99.90
15625;DHT22;7912;51.376;6.126;2023-08-30T06:12:44;18.40;99.90
15625;DHT22;7912;51.376;6.126;2023-08-30T06:15:19;18.40;99.90
15625;DHT22;7912;51.376;6.126;2023-08-30T06:17:59;18.50;99.90
15625;DHT22;7912;51.376;6.126;2023-08-30T06:20:44;18.60;99.90
15625;DHT22;7912;51.376;6.126;2023-08-30T06:23:12;18.60;99.90
15625;DHT22;7912;51.376;6.126;2023-08-30T06:25:58;18.70;99.90
15625;DHT22;7912;51.376;6.126;2023-08-30T06:28:35;18.80;99.90
15625;DHT22;7912;51.376;6.126;2023-08-30T06:31:08;18.90;99.90
15625;DHT22;7912;51.376;6.126;2023-08-30T06:33:36;18.90;99.90
15625;DHT22;7912;51.376;6.126;2023-08-30T06:36:06;19.00;99.90
15625;DHT22;7912;51.376;6.126;2023-08-30T06:38:42;19.20;99.90
15625;DHT22;7912;51.376;6.126;2023-08-30T06:41:12;19.30;99.90
15625;DHT22;7912;51.376;6.126;2023-08-30T06:43:40;19.30;99.90
15625;DHT22;7912;51.376;6.126;2023-08-30T06:46:08;19.50;99.90
15625;DHT22;7912;51.376;6.126;2023-08-30T06:48:37;19.50;99.90
15625;DHT22;7912;51.376;6.126;2023-08-30T06:51:11;19.60;99.90
15625;DHT22;7912;51.376;6.126;2023-08-30T06:53:38;19.70;99.90
15625;DHT22;7912;51.376;6.126;2023-08-30T06:56:06;19.70;99.90
15625;DHT22;7912;51.376;6.126;2023-08-30T06:58:54;19.80;99.90
15625;DHT22;7912;51.376;6.126;2023-08-30T07:01:22;19.80;99.90
15625;DHT22;7912;51.376;6.126;2023-08-30T07:03:50;19.90;99.90
15625;DHT22;7912;51.376;6.126;2023-08-30T07:06:18;19.90;99.90
15625;DHT22;7912;51.376;6.126;2023-08-30T07:08:45;19.90;99.90
15625;DHT22;7912;51.376;6.126;2023-08-30T07:11:14;19.90;99.90
15625;DHT22;7912;51.376;6.126;2023-08-30T07:14:03;20.00;99.90
15625;DHT22;7912;51.376;6.126;2023-08-30T07:16:38;20.00;99.90
15625;DHT22;7912;51.376;6.126;2023-08-30T07:19:05;20.10;99.90
15625;DHT22;7912;51.376;6.126;2023-08-30T07:21:37;20.20;99.90
15625;DHT22;7912;51.376;6.126;2023-08-30T07:24:09;20.30;99.90
15625;DHT22;7912;51.376;6.126;2023-08-30T07:26:36;20.40;99.90
15625;DHT22;7912;51.376;6.126;2023-08-30T07:29:10;20.50;99.90
15625;DHT22;7912;51.376;6.126;2023-08-30T07:31:47;20.60;99.90
15625;DHT22;7912;51.376;6.126;2023-08-30T07:34:22;20.70;99.90
15625;DHT22;7912;51.376;6.126;2023-08-30T07:36:49;20.90;99.90
15625;DHT22;7912;51.376;6.126;2023-08-30T07:39:18;21.00;99.90
15625;DHT22;7912;51.376;6.126;2023-08-30T07:41:48;21.10;99.90
15625;DHT22;7912;51.376;6.126;2023-08-30T07:44:22;21.20;99.90
15625;DHT22;7912;51.376;6.126;2023-08-30T07:46:50;21.20;99.90
15625;DHT22;7912;51.376;6.126;2023-08-30T07:49:24;21.30;99.90
15625;DHT22;7912;51.376;6.126;2023-08-30T07:51:51;21.40;99.90
15625;DHT22;7912;51.376;6.126;2023-08-30T07:54:19;21.40;99.90
15625;DHT22;7912;51.376;6.126;2023-08-30T07:56:47;21.40;99.90
15625;DHT22;7912;51.376;6.126;2023-08-30T07:59:17;21.40;99.90
15625;DHT22;7912;51.376;6.126;2023-08-30T08:01:46;21.30;99.90
15625;DHT22;7912;51.376;6.126;2023-08-30T08:04:13;21.20;99.90
15625;DHT22;7912;51.376;6.126;2023-08-30T08:06:41;21.10;99.90
15625;DHT22;7912;51.376;6.126;2023-08-30T08:12:02;20.80;99.90
15625;DHT22;7912;51.376;6.126;2023-08-30T08:14:36;20.70;99.90
15625;DHT22;7912;51.376;6.126;2023-08-30T08:17:09;20.60;99.90
15625;DHT22;7912;51.376;6.126;2023-08-30T08:19:36;20.40;99.90
15625;DHT22;7912;51.376;6.126;2023-08-30T08:22:07;20.30;99.90
15625;DHT22;7912;51.376;6.126;2023-08-30T08:24:35;20.20;99.90
15625;DHT22;7912;51.376;6.126;2023-08-30T08:27:02;20.10;99.90
15625;DHT22;7912;51.376;6.126;2023-08-30T08:29:32;20.00;99.90
15625;DHT22;7912;51.376;6.126;2023-08-30T08:31:59;19.90;99.90
15625;DHT22;7912;51.376;6.126;2023-08-30T08:34:27;19.80;99.90
15625;DHT22;7912;51.376;6.126;2023-08-30T08:36:54;19.70;99.90
15625;DHT22;7912;51.376;6.126;2023-08-30T08:39:22;19.60;99.90
15625;DHT22;7912;51.376;6.126;2023-08-30T08:41:51;19.60;99.90
15625;DHT22;7912;51.376;6.126;2023-08-30T08:44:23;19.50;99.90
15625;DHT22;7912;51.376;6.126;2023-08-30T08:47:01;19.40;99.90
15625;DHT22;7912;51.376;6.126;2023-08-30T08:49:29;19.40;99.90
15625;DHT22;7912;51.376;6.126;2023-08-30T08:51:58;19.40;99.90
15625;DHT22;7912;51.376;6.126;2023-08-30T08:54:32;19.40;99.90
15625;DHT22;7912;51.376;6.126;2023-08-30T08:56:59;19.40;99.90
15625;DHT22;7912;51.376;6.126;2023-08-30T08:59:28;19.40;99.90
15625;DHT22;7912;51.376;6.126;2023-08-30T09:02:02;19.40;99.90
15625;DHT22;7912;51.376;6.126;2023-08-30T09:04:33;19.30;99.90
15625;DHT22;7912;51.376;6.126;2023-08-30T09:07:26;19.40;99.90
15625;DHT22;7912;51.376;6.126;2023-08-30T09:09:55;19.30;99.90
15625;DHT22;7912;51.376;6.126;2023-08-30T09:12:23;19.30;99.90
15625;DHT22;7912;51.376;6.126;2023-08-30T09:18:02;19.20;99.90
15625;DHT22;7912;51.376;6.126;2023-08-30T09:20:29;19.20;99.90
15625;DHT22;7912;51.376;6.126;2023-08-30T09:22:57;19.20;99.90
15625;DHT22;7912;51.376;6.126;2023-08-30T09:25:26;19.10;99.90
15625;DHT22;7912;51.376;6.126;2023-08-30T09:27:58;19.20;99.90
15625;DHT22;7912;51.376;6.126;2023-08-30T09:30:27;19.10;99.90
15625;DHT22;7912;51.376;6.126;2023-08-30T09:33:04;19.20;99.90
15625;DHT22;7912;51.376;6.126;2023-08-30T09:35:43;19.20;99.90
15625;DHT22;7912;51.376;6.126;2023-08-30T09:38:19;19.20;99.90
15625;DHT22;7912;51.376;6.126;2023-08-30T09:40:47;19.30;99.90
15625;DHT22;7912;51.376;6.126;2023-08-30T09:43:19;19.30;99.90
15625;DHT22;7912;51.376;6.126;2023-08-30T09:45:51;19.40;99.90
15625;DHT22;7912;51.376;6.126;2023-08-30T09:48:22;19.50;99.90
15625;DHT22;7912;51.376;6.126;2023-08-30T09:50:58;19.50;99.90
15625;DHT22;7912;51.376;6.126;2023-08-30T09:53:29;19.60;99.90
15625;DHT22;7912;51.376;6.126;2023-08-30T09:56:15;19.70;99.90
15625;DHT22;7912;51.376;6.126;2023-08-30T09:58:44;19.70;99.90
15625;DHT22;7912;51.376;6.126;2023-08-30T10:01:12;19.80;99.90
15625;DHT22;7912;51.376;6.126;2023-08-30T10:03:41;19.80;99.90
15625;DHT22;7912;51.376;6.126;2023-08-30T10:06:10;19.70;99.90
15625;DHT22;7912;51.376;6.126;2023-08-30T10:08:38;19.70;99.90
15625;DHT22;7912;51.376;6.126;2023-08-30T10:11:13;19.60;99.90
15625;DHT22;7912;51.376;6.126;2023-08-30T10:13:45;19.50;99.90
15625;DHT22;7912;51.376;6.126;2023-08-30T10:16:24;19.40;99.90
15625;DHT22;7912;51.376;6.126;2023-08-30T10:19:03;19.40;99.90
15625;DHT22;7912;51.376;6.126;2023-08-30T10:21:36;19.30;99.90
15625;DHT22;7912;51.376;6.126;2023-08-30T10:24:07;19.20;99.90
15625;DHT22;7912;51.376;6.126;2023-08-30T10:26:57;19.20;99.90
15625;DHT22;7912;51.376;6.126;2023-08-30T10:29:32;19.10;99.90
15625;DHT22;7912;51.376;6.126;2023-08-30T10:32:04;19.10;99.90
15625;DHT22;7912;51.376;6.126;2023-08-30T10:34:36;19.00;99.90
15625;DHT22;7912;51.376;6.126;2023-08-30T10:37:09;19.00;99.90
15625;DHT22;7912;51.376;6.126;2023-08-30T10:39:39;19.00;99.90
15625;DHT22;7912;51.376;6.126;2023-08-30T10:42:13;19.00;99.90
15625;DHT22;7912;51.376;6.126;2023-08-30T10:44:56;19.00;99.90
15625;DHT22;7912;51.376;6.126;2023-08-30T10:47:54;19.00;99.90
15625;DHT22;7912;51.376;6.126;2023-08-30T10:50:31;19.20;99.90
15625;DHT22;7912;51.376;6.126;2023-08-30T10:53:00;19.30;99.90
15625;DHT22;7912;51.376;6.126;2023-08-30T10:55:28;19.40;99.90
15625;DHT22;7912;51.376;6.126;2023-08-30T10:58:03;19.50;99.90
15625;DHT22;7912;51.376;6.126;2023-08-30T11:00:33;19.60;99.90
15625;DHT22;7912;51.376;6.126;2023-08-30T11:03:03;19.80;99.90
15625;DHT22;7912;51.376;6.126;2023-08-30T11:05:31;19.90;99.90
15625;DHT22;7912;51.376;6.126;2023-08-30T11:07:59;20.00;99.90
15625;DHT22;7912;51.376;6.126;2023-08-30T11:10:27;20.20;99.90
15625;DHT22;7912;51.376;6.126;2023-08-30T11:12:56;20.30;99.90
15625;DHT22;7912;51.376;6.126;2023-08-30T11:15:26;20.40;99.90
15625;DHT22;7912;51.376;6.126;2023-08-30T11:18:02;20.50;99.90
15625;DHT22;7912;51.376;6.126;2023-08-30T11:20:30;20.60;99.90
15625;DHT22;7912;51.376;6.126;2023-08-30T11:22:58;20.80;99.90
15625;DHT22;7912;51.376;6.126;2023-08-30T11:25:26;20.90;99.90
15625;DHT22;7912;51.376;6.126;2023-08-30T11:28:02;21.00;99.90
15625;DHT22;7912;51.376;6.126;2023-08-30T11:30:30;21.10;99.90
15625;DHT22;7912;51.376;6.126;2023-08-30T11:32:58;21.30;99.90
15625;DHT22;7912;51.376;6.126;2023-08-30T11:35:26;21.30;99.90
15625;DHT22;7912;51.376;6.126;2023-08-30T11:37:54;21.40;99.90
15625;DHT22;7912;51.376;6.126;2023-08-30T11:40:22;21.50;99.90
15625;DHT22;7912;51.376;6.126;2023-08-30T11:42:51;21.50;99.90
15625;DHT22;7912;51.376;6.126;2023-08-30T11:45:18;21.50;99.90
15625;DHT22;7912;51.376;6.126;2023-08-30T11:47:46;21.50;99.90
15625;DHT22;7912;51.376;6.126;2023-08-30T11:50:15;21.40;99.90
15625;DHT22;7912;51.376;6.126;2023-08-30T11:52:43;21.30;99.90
15625;DHT22;7912;51.376;6.126;2023-08-30T11:55:11;21.30;99.90
15625;DHT22;7912;51.376;6.126;2023-08-30T11:57:43;21.20;99.90
15625;DHT22;7912;51.376;6.126;2023-08-30T12:00:12;21.10;99.90
15625;DHT22;7912;51.376;6.126;2023-08-30T12:02:41;21.00;99.90
15625;DHT22;7912;51.376;6.126;2023-08-30T12:05:15;20.90;99.90
15625;DHT22;7912;51.376;6.126;2023-08-30T12:07:46;20.90;99.90
15625;DHT22;7912;51.376;6.126;2023-08-30T12:10:13;20.90;99.90
15625;DHT22;7912;51.376;6.126;2023-08-30T12:12:47;20.90;99.90
15625;DHT22;7912;51.376;6.126;2023-08-30T12:15:16;21.00;99.90
15625;DHT22;7912;51.376;6.126;2023-08-30T12:17:44;21.20;99.90
15625;DHT22;7912;51.376;6.126;2023-08-30T12:20:16;21.30;99.90
15625;DHT22;7912;51.376;6.126;2023-08-30T12:22:53;21.40;99.90
15625;DHT22;7912;51.376;6.126;2023-08-30T12:25:22;21.60;99.90
15625;DHT22;7912;51.376;6.126;2023-08-30T12:27:51;21.60;99.90
15625;DHT22;7912;51.376;6.126;2023-08-30T12:30:20;21.70;99.90
15625;DHT22;7912;51.376;6.126;2023-08-30T12:32:49;21.70;99.90
15625;DHT22;7912;51.376;6.126;2023-08-30T12:35:27;21.70;99.90
15625;DHT22;7912;51.376;6.126;2023-08-30T12:37:54;21.70;99.90
15625;DHT22;7912;51.376;6.126;2023-08-30T12:40:22;21.60;99.90
15625;DHT22;7912;51.376;6.126;2023-08-30T12:42:50;21.50;99.90
15625;DHT22;7912;51.376;6.126;2023-08-30T12:45:17;21.50;99.90
15625;DHT22;7912;51.376;6.126;2023-08-30T12:47:45;21.40;99.90
15625;DHT22;7912;51.376;6.126;2023-08-30T12:50:12;21.40;99.90
15625;DHT22;7912;51.376;6.126;2023-08-30T12:52:39;21.40;99.90
15625;DHT22;7912;51.376;6.126;2023-08-30T12:55:07;21.40;99.90
15625;DHT22;7912;51.376;6.126;2023-08-30T12:57:37;21.50;99.90
15625;DHT22;7912;51.376;6.126;2023-08-30T13:00:05;21.50;99.90
15625;DHT22;7912;51.376;6.126;2023-08-30T13:02:33;21.60;99.90
15625;DHT22;7912;51.376;6.126;2023-08-30T13:05:00;21.60;99.90
15625;DHT22;7912;51.376;6.126;2023-08-30T13:07:28;21.70;99.90
15625;DHT22;7912;51.376;6.126;2023-08-30T13:09:55;21.80;99.90
15625;DHT22;7912;51.376;6.126;2023-08-30T13:12:23;21.80;99.90
15625;DHT22;7912;51.376;6.126;2023-08-30T13:14:51;21.90;99.90
15625;DHT22;7912;51.376;6.126;2023-08-30T13:17:18;22.00;99.90
15625;DHT22;7912;51.376;6.126;2023-08-30T13:19:46;22.10;99.90
15625;DHT22;7912;51.376;6.126;2023-08-30T13:22:13;22.10;99.90
15625;DHT22;7912;51.376;6.126;2023-08-30T13:24:41;22.20;99.90
15625;DHT22;7912;51.376;6.126;2023-08-30T13:27:08;22.30;99.90
15625;DHT22;7912;51.376;6.126;2023-08-30T13:29:36;22.30;99.90
15625;DHT22;7912;51.376;6.126;2023-08-30T13:32:04;22.30;99.90
15625;DHT22;7912;51.376;6.126;2023-08-30T13:34:31;22.20;99.90
15625;DHT22;7912;51.376;6.126;2023-08-30T13:37:02;22.20;99.90
15625;DHT22;7912;51.376;6.126;2023-08-30T13:39:30;22.20;99.90
15625;DHT22;7912;51.376;6.126;2023-08-30T13:41:58;22.20;99.90
15625;DHT22;7912;51.376;6.126;2023-08-30T13:44:25;22.20;99.90
15625;DHT22;7912;51.376;6.126;2023-08-30T13:46:52;22.20;99.90
15625;DHT22;7912;51.376;6.126;2023-08-30T13:49:20;22.20;99.90
15625;DHT22;7912;51.376;6.126;2023-08-30T13:51:50;22.10;99.90
15625;DHT22;7912;51.376;6.126;2023-08-30T13:54:21;22.10;99.90
15625;DHT22;7912;51.376;6.126;2023-08-30T13:56:48;22.00;99.90
15625;DHT22;7912;51.376;6.126;2023-08-30T13:59:16;22.00;99.90
15625;DHT22;7912;51.376;6.126;2023-08-30T14:01:43;21.90;99.90
15625;DHT22;7912;51.376;6.126;2023-08-30T14:04:11;21.90;99.90
15625;DHT22;7912;51.376;6.126;2023-08-30T14:06:38;21.80;99.90
15625;DHT22;7912;51.376;6.126;2023-08-30T14:09:06;21.80;99.90
15625;DHT22;7912;51.376;6.126;2023-08-30T14:11:35;21.80;99.90
15625;DHT22;7912;51.376;6.126;2023-08-30T14:14:04;21.90;99.90
15625;DHT22;7912;51.376;6.126;2023-08-30T14:16:32;21.90;99.90
15625;DHT22;7912;51.376;6.126;2023-08-30T14:18:59;22.00;99.90
15625;DHT22;7912;51.376;6.126;2023-08-30T14:21:27;22.00;99.90
15625;DHT22;7912;51.376;6.126;2023-08-30T14:23:54;22.10;99.90
15625;DHT22;7912;51.376;6.126;2023-08-30T14:26:21;22.10;99.90
15625;DHT22;7912;51.376;6.126;2023-08-30T14:28:49;22.20;99.90
15625;DHT22;7912;51.376;6.126;2023-08-30T14:31:19;22.20;99.90
15625;DHT22;7912;51.376;6.126;2023-08-30T14:33:46;22.30;99.90
15625;DHT22;7912;51.376;6.126;2023-08-30T14:36:14;22.40;99.90
15625;DHT22;7912;51.376;6.126;2023-08-30T14:38:43;22.50;99.90
15625;DHT22;7912;51.376;6.126;2023-08-30T14:41:10;22.70;99.90
15625;DHT22;7912;51.376;6.126;2023-08-30T14:43:39;23.10;99.90
15625;DHT22;7912;51.376;6.126;2023-08-30T14:46:07;23.50;99.90
15625;DHT22;7912;51.376;6.126;2023-08-30T14:48:39;24.00;99.90
15625;DHT22;7912;51.376;6.126;2023-08-30T14:51:07;24.30;99.90
15625;DHT22;7912;51.376;6.126;2023-08-30T14:53:35;24.50;99.90
15625;DHT22;7912;51.376;6.126;2023-08-30T14:56:05;24.60;99.90
15625;DHT22;7912;51.376;6.126;2023-08-30T14:58:35;24.80;99.90
15625;DHT22;7912;51.376;6.126;2023-08-30T15:01:03;24.90;99.90
15625;DHT22;7912;51.376;6.126;2023-08-30T15:03:34;24.90;99.90
15625;DHT22;7912;51.376;6.126;2023-08-30T15:06:02;24.80;99.90
15625;DHT22;7912;51.376;6.126;2023-08-30T15:08:29;24.80;99.90
15625;DHT22;7912;51.376;6.126;2023-08-30T15:10:59;24.60;99.90
15625;DHT22;7912;51.376;6.126;2023-08-30T15:13:27;24.60;99.90
15625;DHT22;7912;51.376;6.126;2023-08-30T15:15:55;24.50;99.90
15625;DHT22;7912;51.376;6.126;2023-08-30T15:18:22;24.60;99.90
15625;DHT22;7912;51.376;6.126;2023-08-30T15:20:53;24.80;99.90
15625;DHT22;7912;51.376;6.126;2023-08-30T15:23:43;25.10;99.90
15625;DHT22;7912;51.376;6.126;2023-08-30T15:26:10;25.60;99.90
15625;DHT22;7912;51.376;6.126;2023-08-30T15:28:48;25.90;99.90
15625;DHT22;7912;51.376;6.126;2023-08-30T15:31:17;26.20;96.10
15625;DHT22;7912;51.376;6.126;2023-08-30T15:33:50;26.40;95.90
15625;DHT22;7912;51.376;6.126;2023-08-30T15:36:18;26.60;94.20
15625;DHT22;7912;51.376;6.126;2023-08-30T15:38:45;26.60;93.40
15625;DHT22;7912;51.376;6.126;2023-08-30T15:41:14;26.60;92.60
15625;DHT22;7912;51.376;6.126;2023-08-30T15:43:41;26.40;92.00
15625;DHT22;7912;51.376;6.126;2023-08-30T15:46:10;26.30;91.80
15625;DHT22;7912;51.376;6.126;2023-08-30T15:48:39;26.00;92.10
15625;DHT22;7912;51.376;6.126;2023-08-30T15:51:09;25.80;92.00
15625;DHT22;7912;51.376;6.126;2023-08-30T15:53:51;25.60;92.10
15625;DHT22;7912;51.376;6.126;2023-08-30T15:56:23;25.50;92.70
15625;DHT22;7912;51.376;6.126;2023-08-30T15:58:50;25.50;92.20
15625;DHT22;7912;51.376;6.126;2023-08-30T16:01:18;25.50;92.50
15625;DHT22;7912;51.376;6.126;2023-08-30T16:03:47;25.40;92.60
15625;DHT22;7912;51.376;6.126;2023-08-30T16:06:15;25.40;92.40
15625;DHT22;7912;51.376;6.126;2023-08-30T16:08:46;25.40;92.10
15625;DHT22;7912;51.376;6.126;2023-08-30T16:11:16;25.40;92.00
15625;DHT22;7912;51.376;6.126;2023-08-30T16:13:44;25.40;91.80
15625;DHT22;7912;51.376;6.126;2023-08-30T16:16:12;25.50;91.90
15625;DHT22;7912;51.376;6.126;2023-08-30T16:18:41;25.60;91.70
15625;DHT22;7912;51.376;6.126;2023-08-30T16:21:09;25.60;91.50
15625;DHT22;7912;51.376;6.126;2023-08-30T16:23:39;25.60;90.70
15625;DHT22;7912;51.376;6.126;2023-08-30T16:26:07;25.70;90.80
15625;DHT22;7912;51.376;6.126;2023-08-30T16:28:34;25.60;91.00
15625;DHT22;7912;51.376;6.126;2023-08-30T16:31:07;25.60;90.80